createdAt,value
2018-02-06T00:01:00.354Z,101173.98
2018-02-06T00:03:35.539Z,101173.29
2018-02-06T00:06:05.502Z,101173.06
2018-02-06T00:08:34.466Z,101169.07
2018-02-06T00:11:03.461Z,101166.28
2018-02-06T00:13:33.361Z,101170.80
2018-02-06T00:16:02.301Z,101168.65
2018-02-06T00:18:31.295Z,101164.53
2018-02-06T00:21:00.391Z,101167.19
2018-02-06T00:23:29.688Z,101166.67
2018-02-06T00:25:58.851Z,101168.33
2018-02-06T00:28:27.767Z,101164.98
2018-02-06T00:30:56.745Z,101169.20
2018-02-06T00:33:25.935Z,101165.69
2018-02-06T00:35:54.897Z,101168.80
2018-02-06T00:38:23.849Z,101166.96
2018-02-06T00:40:55.644Z,101162.42
2018-02-06T00:43:25.394Z,101160.59
2018-02-06T00:45:54.210Z,101152.09
2018-02-06T00:48:26.861Z,101154.83
2018-02-06T00:50:56.010Z,101156.08
2018-02-06T00:53:28.535Z,101158.53
2018-02-06T00:55:57.512Z,101153.50
2018-02-06T00:58:26.508Z,101154.38
2018-02-06T01:00:55.629Z,101158.97
2018-02-06T01:03:25.202Z,101153.19
2018-02-06T01:05:54.283Z,101148.89
2018-02-06T01:08:23.193Z,101152.67
2018-02-06T01:10:52.955Z,101147.22
2018-02-06T01:13:22.928Z,101150.49
2018-02-06T01:15:53.067Z,101136.58
2018-02-06T01:18:23.277Z,101139.63
2018-02-06T01:20:53.214Z,101137.52
2018-02-06T01:23:24.389Z,101128.69
2018-02-06T01:25:54.231Z,101135.46
2018-02-06T01:28:23.837Z,101137.84
2018-02-06T01:30:57.388Z,101135.28
2018-02-06T01:33:27.293Z,101139.10
2018-02-06T01:35:57.279Z,101140.41
2018-02-06T01:38:27.373Z,101137.84
2018-02-06T01:40:57.211Z,101130.28
2018-02-06T01:43:27.189Z,101132.65
2018-02-06T01:45:57.779Z,101137.89
2018-02-06T01:48:27.874Z,101139.95
2018-02-06T01:51:01.113Z,101143.80
2018-02-06T01:53:31.166Z,101143.39
2018-02-06T01:56:01.343Z,101138.15
2018-02-06T01:58:32.322Z,101132.77
2018-02-06T02:01:02.038Z,101129.16
2018-02-06T02:03:31.921Z,101133.65
2018-02-06T02:06:02.175Z,101124.88
2018-02-06T02:08:32.572Z,101127.47
2018-02-06T02:11:03.332Z,101125.14
2018-02-06T02:13:33.352Z,101116.94
2018-02-06T02:16:03.668Z,101114.61
2018-02-06T02:18:34.514Z,101116.39
2018-02-06T02:21:04.726Z,101121.25
2018-02-06T02:23:34.659Z,101116.98
2018-02-06T02:28:39.172Z,101118.98
2018-02-06T02:31:09.014Z,101122.90
2018-02-06T02:33:38.916Z,101119.19
2018-02-06T02:36:08.656Z,101123.29
2018-02-06T02:38:38.553Z,101130.72
2018-02-06T02:41:08.482Z,101126.99
2018-02-06T04:40:44.906Z,101108.04
2018-02-06T04:43:13.920Z,101109.22
2018-02-06T04:45:46.922Z,101114.22
2018-02-06T04:48:15.943Z,101122.48
2018-02-06T04:50:45.822Z,101126.80
2018-02-06T04:53:15.022Z,101130.66
2018-02-06T04:55:45.367Z,101128.14
2018-02-06T04:58:14.405Z,101133.12
2018-02-06T05:00:44.425Z,101136.45
2018-02-06T05:03:13.447Z,101133.27
2018-02-06T05:05:42.515Z,101136.72
2018-02-06T05:08:13.887Z,101139.38
2018-02-06T05:10:43.573Z,101142.25
2018-02-06T05:13:12.775Z,101144.63
2018-02-06T05:15:41.869Z,101152.16
2018-02-06T05:18:10.964Z,101165.22
2018-02-06T05:20:40.058Z,101156.20
2018-02-06T05:23:09.054Z,101161.83
2018-02-06T05:25:41.429Z,101176.81
2018-02-06T05:28:11.317Z,101178.15
2018-02-06T05:30:40.437Z,101177.32
2018-02-06T05:33:09.396Z,101177.55
2018-02-06T05:35:38.544Z,101183.43
2018-02-06T05:38:07.572Z,101185.02
2018-02-06T05:40:36.878Z,101188.95
2018-02-06T05:43:06.549Z,101185.81
2018-02-06T05:45:35.624Z,101192.41
2018-02-06T05:48:05.140Z,101189.53
2018-02-06T05:50:35.271Z,101191.98
2018-02-06T05:53:04.288Z,101192.53
2018-02-06T05:55:33.469Z,101192.45
2018-02-06T05:58:03.399Z,101191.75
2018-02-06T06:00:32.586Z,101192.59
2018-02-06T06:03:01.487Z,101199.08
2018-02-06T06:05:32.192Z,101203.58
2018-02-06T06:08:03.385Z,101204.92
2018-02-06T06:10:38.763Z,101215.42
2018-02-06T06:13:07.703Z,101204.88
2018-02-06T06:15:38.232Z,101212.20
2018-02-06T06:18:11.959Z,101215.08
2018-02-06T06:20:40.961Z,101214.36
2018-02-06T06:23:11.507Z,101222.45
2018-02-06T06:25:43.591Z,101224.13
2018-02-06T06:28:12.601Z,101228.65
2018-02-06T06:30:42.542Z,101234.40
2018-02-06T06:33:11.786Z,101236.84
2018-02-06T06:35:40.792Z,101232.15
2018-02-06T06:38:09.786Z,101223.73
2018-02-06T06:40:38.902Z,101231.31
2018-02-06T06:43:08.013Z,101233.87
2018-02-06T06:45:37.010Z,101229.84
2018-02-06T06:48:06.216Z,101224.53
2018-02-06T06:50:35.342Z,101220.44
2018-02-06T06:53:04.285Z,101222.55
2018-02-06T06:55:34.198Z,101217.47
2018-02-06T06:58:03.214Z,101221.86
2018-02-06T07:00:32.204Z,101220.95
2018-02-06T07:03:02.633Z,101222.67
2018-02-06T07:05:32.545Z,101231.77
2018-02-06T07:08:01.944Z,101231.80
2018-02-06T07:10:30.944Z,101234.12
2018-02-06T07:13:00.893Z,101241.80
2018-02-06T07:15:29.998Z,101246.09
2018-02-06T07:17:59.091Z,101246.48
2018-02-06T07:41:28.212Z,101230.69
2018-02-06T07:43:57.171Z,101223.91
2018-02-06T07:46:25.977Z,101230.40
2018-02-06T07:49:02.342Z,101226.41
2018-02-06T07:51:31.332Z,101225.66
2018-02-06T07:54:00.432Z,101222.70
2018-02-06T07:56:31.806Z,101226.37
2018-02-06T07:59:00.663Z,101225.04
2018-02-06T08:01:29.585Z,101236.28
2018-02-06T08:03:59.584Z,101235.33
2018-02-06T08:06:28.510Z,101230.27
2018-02-06T08:08:58.316Z,101227.71
2018-02-06T08:11:29.094Z,101235.45
2018-02-06T08:13:58.016Z,101235.56
2018-02-06T08:16:26.966Z,101239.39
2018-02-06T08:18:56.825Z,101232.52
2018-02-06T08:21:25.636Z,101230.78
2018-02-06T08:23:54.743Z,101231.92
2018-02-06T08:26:24.554Z,101237.95
2018-02-06T08:28:53.513Z,101241.98
2018-02-06T08:31:23.447Z,101239.88
2018-02-06T08:33:52.538Z,101239.20
2018-02-06T08:36:21.433Z,101243.91
2018-02-06T08:38:50.284Z,101240.37
2018-02-06T08:41:19.608Z,101247.21
2018-02-06T08:43:48.608Z,101245.64
2018-02-06T08:46:17.585Z,101250.39
2018-02-06T08:48:46.792Z,101252.30
2018-02-06T08:51:15.889Z,101255.06
2018-02-06T08:53:44.898Z,101258.31
2018-02-06T08:56:15.444Z,101254.02
2018-02-06T08:58:44.516Z,101259.30
2018-02-06T09:01:13.506Z,101254.73
2018-02-06T09:03:43.358Z,101246.77
2018-02-06T09:06:12.312Z,101245.69
2018-02-06T09:08:41.102Z,101256.34
2018-02-06T09:11:10.414Z,101264.07
2018-02-06T09:13:39.911Z,101267.99
2018-02-06T09:16:08.902Z,101255.13
2018-02-06T09:18:38.986Z,101255.34
2018-02-06T09:21:08.017Z,101250.85
2018-02-06T09:23:37.845Z,101251.48
2018-02-06T09:26:06.833Z,101258.70
2018-02-06T09:28:35.826Z,101256.47
2018-02-06T09:31:04.820Z,101260.70
2018-02-06T09:33:35.722Z,101265.98
2018-02-06T09:36:05.272Z,101263.98
2018-02-06T09:38:35.072Z,101262.92
2018-02-06T09:41:05.021Z,101266.11
2018-02-06T09:43:34.474Z,101265.70
2018-02-06T09:46:03.385Z,101262.26
2018-02-06T09:48:32.785Z,101251.42
2018-02-06T09:51:01.939Z,101248.88
2018-02-06T09:53:31.093Z,101250.87
2018-02-06T09:56:00.293Z,101256.06
2018-02-06T09:58:29.283Z,101245.53
2018-02-06T10:00:58.273Z,101248.83
2018-02-06T10:03:27.985Z,101249.52
2018-02-06T10:05:56.979Z,101248.20
2018-02-06T10:08:25.874Z,101238.27
2018-02-06T10:10:56.638Z,101242.30
2018-02-06T10:13:25.725Z,101246.10
2018-02-06T10:15:54.737Z,101235.73
2018-02-06T10:18:23.895Z,101233.17
2018-02-06T10:20:52.978Z,101228.55
2018-02-06T10:23:22.966Z,101220.67
2018-02-06T10:25:52.116Z,101217.96
2018-02-06T10:28:21.608Z,101209.78
2018-02-06T10:30:50.813Z,101204.41
2018-02-06T10:33:21.052Z,101205.73
2018-02-06T10:35:49.918Z,101207.59
2018-02-06T10:38:18.916Z,101213.88
2018-02-06T10:40:49.448Z,101212.64
2018-02-06T10:43:18.339Z,101216.08
2018-02-06T10:45:47.450Z,101203.96
2018-02-06T10:48:17.190Z,101209.86
2018-02-06T10:50:46.245Z,101204.47
2018-02-06T10:53:15.242Z,101198.97
2018-02-06T10:55:44.265Z,101206.36
2018-02-06T10:58:13.225Z,101201.56
2018-02-06T11:00:42.046Z,101199.23
2018-02-06T11:03:13.770Z,101194.28
2018-02-06T11:05:42.662Z,101195.21
2018-02-06T11:08:11.562Z,101192.83
2018-02-06T11:10:46.524Z,101193.85
2018-02-06T11:13:15.400Z,101194.25
2018-02-06T11:15:44.249Z,101187.81
2018-02-06T11:18:13.461Z,101195.41
2018-02-06T11:20:42.505Z,101191.44
2018-02-06T11:23:12.004Z,101187.20
2018-02-06T11:25:40.965Z,101184.47
2018-02-06T11:28:12.929Z,101189.68
2018-02-06T11:30:42.945Z,101197.55
2018-02-06T11:33:11.833Z,101198.10
2018-02-06T11:35:40.759Z,101185.91
2018-02-06T11:38:10.680Z,101192.78
2018-02-06T11:40:39.602Z,101196.37
2018-02-06T11:43:08.594Z,101195.87
2018-02-06T11:45:37.519Z,101195.23
2018-02-06T11:48:06.415Z,101196.58
2018-02-06T11:50:36.254Z,101197.67
2018-02-06T11:53:05.306Z,101198.83
2018-02-06T11:55:34.214Z,101194.61
2018-02-06T11:58:03.053Z,101194.80
2018-02-06T12:00:36.398Z,101201.87
2018-02-06T12:03:05.293Z,101195.75
2018-02-06T12:05:34.236Z,101200.59
2018-02-06T12:08:05.738Z,101200.70
2018-02-06T12:10:34.733Z,101200.73
2018-02-06T12:13:03.605Z,101206.72
2018-02-06T12:15:33.541Z,101206.78
2018-02-06T12:18:03.452Z,101203.67
2018-02-06T12:20:33.272Z,101196.86
2018-02-06T12:23:02.589Z,101199.23
2018-02-06T12:25:31.588Z,101200.03
2018-02-06T12:28:00.999Z,101207.20
2018-02-06T12:30:30.512Z,101205.21
2018-02-06T12:32:59.489Z,101199.42
2018-02-06T12:35:29.587Z,101198.85
2018-02-06T12:37:58.469Z,101205.84
2018-02-06T12:40:28.286Z,101203.75
2018-02-06T12:42:57.180Z,101206.10
2018-02-06T12:45:27.913Z,101204.07
2018-02-06T12:47:56.910Z,101206.73
2018-02-06T12:50:25.901Z,101205.25
2018-02-06T12:52:55.223Z,101199.75
2018-02-06T12:55:24.209Z,101195.47
2018-02-06T12:57:53.195Z,101205.79
2018-02-06T13:00:23.314Z,101204.09
2018-02-06T13:02:53.122Z,101204.36
2018-02-06T13:05:22.937Z,101210.78
2018-02-06T13:07:51.927Z,101204.08
2018-02-06T13:10:21.744Z,101208.18
2018-02-06T13:12:50.637Z,101201.05
2018-02-06T13:15:19.697Z,101208.14
2018-02-06T13:17:48.615Z,101208.66
2018-02-06T13:20:18.538Z,101220.82
2018-02-06T13:22:47.737Z,101219.37
2018-02-06T13:25:16.628Z,101221.91
2018-02-06T13:27:45.665Z,101217.27
2018-02-06T13:30:16.397Z,101219.06
2018-02-06T13:32:45.332Z,101209.34
2018-02-06T13:35:14.367Z,101218.30
2018-02-06T13:37:43.560Z,101218.97
2018-02-06T13:40:12.437Z,101223.98
2018-02-06T13:42:41.940Z,101217.54
2018-02-06T13:45:11.706Z,101212.08
2018-02-06T13:47:41.581Z,101210.05
2018-02-06T13:50:10.561Z,101210.55
2018-02-06T13:52:39.585Z,101214.36
2018-02-06T13:55:08.550Z,101211.84
2018-02-06T13:57:59.769Z,101212.83
2018-02-06T14:00:28.732Z,101212.38
2018-02-06T14:02:57.645Z,101219.13
2018-02-06T14:05:29.999Z,101215.02
2018-02-06T14:07:59.457Z,101214.59
2018-02-06T14:10:28.941Z,101214.48
2018-02-06T14:12:59.561Z,101212.21
2018-02-06T14:15:28.591Z,101213.45
2018-02-06T14:17:57.587Z,101213.05
2018-02-06T14:20:27.189Z,101213.11
2018-02-06T14:22:56.099Z,101214.73
2018-02-06T14:25:25.655Z,101209.27
2018-02-06T14:27:55.484Z,101207.57
2018-02-06T14:30:24.400Z,101213.17
2018-02-06T14:32:53.359Z,101211.23
2018-02-06T14:35:22.279Z,101212.06
2018-02-06T14:37:52.535Z,101209.28
2018-02-06T14:40:22.695Z,101210.09
2018-02-06T14:42:51.774Z,101210.98
2018-02-06T14:47:48.618Z,101214.42
2018-02-06T14:50:19.896Z,101222.56
2018-02-06T14:52:50.529Z,101224.63
2018-02-06T14:55:20.547Z,101224.55
2018-02-06T14:57:49.583Z,101223.64
2018-02-06T15:00:18.641Z,101227.71
2018-02-06T15:02:53.572Z,101230.64
2018-02-06T15:05:22.567Z,101237.41
2018-02-06T15:07:51.474Z,101237.81
2018-02-06T15:10:21.345Z,101242.64
2018-02-06T15:12:50.826Z,101250.64
2018-02-06T15:15:20.392Z,101249.19
2018-02-06T15:17:54.597Z,101249.47
2018-02-06T15:20:23.597Z,101257.98
2018-02-06T15:22:52.596Z,101257.50
2018-02-06T15:25:24.136Z,101255.30
2018-02-06T15:27:54.365Z,101253.57
2018-02-06T15:30:23.186Z,101245.38
2018-02-06T15:32:53.211Z,101250.00
2018-02-06T15:35:22.161Z,101250.08
2018-02-06T15:37:51.115Z,101251.36
2018-02-06T15:40:21.104Z,101252.73
2018-02-06T15:42:50.709Z,101250.72
2018-02-06T15:45:19.650Z,101249.05
2018-02-06T15:47:51.130Z,101253.18
2018-02-06T15:50:20.055Z,101249.73
2018-02-06T15:52:49.019Z,101249.20
2018-02-06T15:55:20.103Z,101247.69
2018-02-06T15:57:49.068Z,101257.87
2018-02-06T16:00:19.305Z,101260.76
2018-02-06T16:02:50.335Z,101255.33
2018-02-06T16:05:19.313Z,101261.72
2018-02-06T16:07:48.140Z,101264.23
2018-02-06T16:10:18.223Z,101269.66
2018-02-06T16:12:47.208Z,101283.98
2018-02-06T16:15:16.204Z,101278.14
2018-02-06T16:17:48.573Z,101284.56
2018-02-06T16:20:17.389Z,101285.30
2018-02-06T16:22:46.304Z,101290.41
2018-02-06T16:25:15.405Z,101288.68
2018-02-06T16:27:44.357Z,101300.70
2018-02-06T16:30:13.293Z,101296.70
2018-02-06T16:32:42.238Z,101305.45
2018-02-06T16:35:11.227Z,101304.55
2018-02-06T16:37:40.092Z,101304.15
2018-02-06T16:40:09.185Z,101309.34
2018-02-06T16:42:38.137Z,101307.80
2018-02-06T16:45:07.108Z,101317.05
2018-02-06T16:47:38.774Z,101320.45
2018-02-06T16:50:07.788Z,101315.39
2018-02-06T16:52:36.780Z,101314.51
2018-02-06T16:55:05.843Z,101317.98
2018-02-06T16:57:34.842Z,101317.61
2018-02-06T17:00:04.053Z,101330.46
2018-02-06T17:02:44.701Z,101328.11
2018-02-06T17:05:13.785Z,101332.00
2018-02-06T17:07:42.800Z,101336.02
2018-02-06T17:10:13.735Z,101337.96
2018-02-06T17:12:42.629Z,101337.02
2018-02-06T17:15:11.825Z,101342.06
2018-02-06T17:17:43.667Z,101332.53
2018-02-06T17:20:12.531Z,101333.64
2018-02-06T17:22:41.576Z,101331.63
2018-02-06T17:25:10.661Z,101341.79
2018-02-06T17:27:40.481Z,101342.22
2018-02-06T17:30:09.474Z,101343.20
2018-02-06T17:32:39.415Z,101346.52
2018-02-06T17:35:09.388Z,101353.95
2018-02-06T17:37:38.502Z,101346.03
2018-02-06T17:40:08.194Z,101356.74
2018-02-06T17:42:37.374Z,101351.44
2018-02-06T17:45:06.382Z,101354.47
2018-02-06T17:47:35.507Z,101360.71
2018-02-06T17:50:04.562Z,101357.02
2018-02-06T17:52:33.697Z,101355.01
2018-02-06T17:55:04.835Z,101358.32
2018-02-06T17:57:33.835Z,101357.88
2018-02-06T18:00:02.761Z,101359.11
2018-02-06T18:02:36.223Z,101357.47
2018-02-06T18:05:05.687Z,101361.36
2018-02-06T18:07:34.830Z,101353.45
2018-02-06T18:10:03.874Z,101360.16
2018-02-06T18:12:33.745Z,101365.53
2018-02-06T18:15:03.758Z,101360.48
2018-02-06T18:17:32.966Z,101366.32
2018-02-06T18:20:03.081Z,101370.45
2018-02-06T18:22:32.168Z,101368.34
2018-02-06T18:25:01.522Z,101365.29
2018-02-06T18:27:30.749Z,101368.26
2018-02-06T18:29:59.865Z,101364.73
2018-02-06T18:32:29.342Z,101370.31
2018-02-06T18:34:58.365Z,101367.42
2018-02-06T18:37:27.333Z,101357.28
2018-02-06T18:39:57.949Z,101362.91
2018-02-06T18:42:27.092Z,101365.50
2018-02-06T18:44:56.081Z,101363.39
2018-02-06T18:47:28.454Z,101361.34
2018-02-06T18:49:57.723Z,101366.12
2018-02-06T18:52:27.935Z,101369.70
2018-02-06T18:54:57.070Z,101367.08
2018-02-06T18:57:26.066Z,101367.53
2018-02-06T18:59:57.970Z,101362.78
2018-02-06T19:02:27.441Z,101366.20
2018-02-06T19:04:57.661Z,101357.83
2018-02-06T19:07:27.315Z,101360.70
2018-02-06T19:09:56.775Z,101367.59
2018-02-06T19:12:26.611Z,101365.19
2018-02-06T19:14:57.474Z,101366.85
2018-02-06T19:17:26.528Z,101369.61
2018-02-06T19:19:55.717Z,101367.69
2018-02-06T19:22:25.230Z,101370.12
2018-02-06T19:24:54.349Z,101371.27
2018-02-06T19:27:23.871Z,101367.15
2018-02-06T19:29:53.537Z,101371.67
2018-02-06T19:32:22.605Z,101370.81
2018-02-06T19:34:52.039Z,101377.71
2018-02-06T19:37:21.797Z,101380.25
2018-02-06T19:39:50.812Z,101370.14
2018-02-06T19:42:20.435Z,101376.83
2018-02-06T19:44:50.864Z,101373.31
2018-02-06T19:47:20.898Z,101379.97
2018-02-06T19:49:50.094Z,101379.39
2018-02-06T19:52:21.702Z,101377.62
2018-02-06T19:54:52.204Z,101369.66
2018-02-06T19:57:22.403Z,101366.78
2018-02-06T19:59:51.609Z,101372.54
2018-02-06T20:02:21.699Z,101371.23
2018-02-06T20:04:50.722Z,101371.33
2018-02-06T20:07:21.146Z,101371.33
2018-02-06T20:09:50.610Z,101373.75
2018-02-06T20:12:19.616Z,101377.02
2018-02-06T20:14:49.890Z,101376.98
2018-02-06T20:17:19.284Z,101377.97
2018-02-06T20:19:48.365Z,101376.04
2018-02-06T20:22:22.786Z,101376.77
2018-02-06T20:24:51.887Z,101377.78
2018-02-06T20:27:21.694Z,101377.33
2018-02-06T20:29:50.893Z,101374.05
2018-02-06T20:32:20.907Z,101371.41
2018-02-06T20:34:50.154Z,101374.17
2018-02-06T20:37:23.324Z,101366.31
2018-02-06T20:39:52.518Z,101365.17
2018-02-06T20:42:21.490Z,101364.66
2018-02-06T20:44:51.561Z,101362.36
2018-02-06T20:47:21.607Z,101366.33
2018-02-06T20:49:50.597Z,101365.55
2018-02-06T20:52:23.180Z,101365.42
2018-02-06T20:54:52.208Z,101355.56
2018-02-06T20:57:21.320Z,101361.72
2018-02-06T20:59:50.588Z,101362.06
2018-02-06T21:02:19.597Z,101360.70
2018-02-06T21:04:48.577Z,101361.42
2018-02-06T21:07:19.421Z,101361.69
2018-02-06T21:09:48.481Z,101361.55
2018-02-06T21:12:17.597Z,101366.63
2018-02-06T21:14:48.358Z,101367.14
2018-02-06T21:17:17.552Z,101369.72
2018-02-06T21:19:46.690Z,101371.11
2018-02-06T21:22:15.737Z,101366.45
2018-02-06T21:24:44.917Z,101368.56
2018-02-06T21:27:13.926Z,101366.10
2018-02-06T21:29:44.867Z,101366.64
2018-02-06T21:32:13.861Z,101367.56
2018-02-06T21:34:44.849Z,101366.78
2018-02-06T21:37:14.719Z,101365.49
2018-02-06T21:39:43.710Z,101369.48
2018-02-06T21:42:12.660Z,101377.83
2018-02-06T21:44:41.839Z,101374.42
2018-02-06T21:47:10.730Z,101376.54
2018-02-06T21:49:40.400Z,101373.84
2018-02-06T21:52:09.804Z,101376.43
2018-02-06T21:54:38.693Z,101373.14
2018-02-06T21:57:08.203Z,101369.56
2018-02-06T21:59:39.326Z,101368.15
2018-02-06T22:02:08.238Z,101375.02
2018-02-06T22:04:37.439Z,101367.44
2018-02-06T22:07:06.425Z,101372.50
2018-02-06T22:09:37.418Z,101373.02
2018-02-06T22:12:09.905Z,101364.09
2018-02-06T22:14:38.871Z,101370.72
2018-02-06T22:17:08.871Z,101374.33
2018-02-06T22:19:37.984Z,101369.62
2018-02-06T22:22:07.028Z,101376.98
2018-02-06T22:24:36.449Z,101379.31
2018-02-06T22:27:08.923Z,101376.88
2018-02-06T22:29:38.032Z,101370.05
2018-02-06T22:32:07.103Z,101367.74
2018-02-06T22:34:37.849Z,101370.92
2018-02-06T22:37:06.947Z,101367.28
2018-02-06T22:39:35.828Z,101368.80
2018-02-06T22:42:07.705Z,101369.36
2018-02-06T22:44:36.692Z,101369.97
2018-02-06T22:47:05.692Z,101381.11
2018-02-06T22:49:36.766Z,101380.34
2018-02-06T22:52:06.335Z,101379.02
2018-02-06T22:54:35.430Z,101364.44
2018-02-06T22:57:04.428Z,101379.02
2018-02-06T22:59:33.433Z,101383.92
2018-02-06T23:02:03.341Z,101379.30
2018-02-06T23:04:33.478Z,101375.13
2018-02-06T23:07:06.499Z,101371.47
2018-02-06T23:09:37.176Z,101367.98
2018-02-06T23:12:06.271Z,101366.86
2018-02-06T23:14:35.265Z,101364.68
2018-02-06T23:17:04.260Z,101366.30
2018-02-06T23:19:33.183Z,101360.62
2018-02-06T23:22:02.839Z,101365.39
2018-02-06T23:24:32.813Z,101365.97
2018-02-06T23:27:01.674Z,101357.64
2018-02-06T23:29:30.765Z,101359.48
2018-02-06T23:32:00.595Z,101363.75
2018-02-06T23:34:31.433Z,101367.23
2018-02-06T23:37:00.331Z,101368.28
2018-02-06T23:39:31.150Z,101369.45
2018-02-06T23:42:01.664Z,101373.98
2018-02-06T23:44:30.659Z,101373.00
2018-02-06T23:47:00.580Z,101369.73
2018-02-06T23:49:29.583Z,101379.39
2018-02-06T23:51:59.285Z,101367.70
2018-02-06T23:54:28.177Z,101369.35
2018-02-06T23:56:57.069Z,101370.36
2018-02-06T23:59:28.843Z,101370.67
